createdAt,value
2018-08-09T00:02:12.037Z,9.43
2018-08-09T00:07:15.703Z,8.97
2018-08-09T00:12:19.402Z,10.13
2018-08-09T00:17:23.106Z,8.90
2018-08-09T00:22:26.804Z,8.83
2018-08-09T00:27:30.482Z,8.50
2018-08-09T00:32:34.129Z,8.60
2018-08-09T00:37:37.736Z,9.00
2018-08-09T00:42:41.456Z,8.50
2018-08-09T00:47:45.246Z,8.47
2018-08-09T00:52:48.978Z,8.10
2018-08-09T00:57:52.799Z,8.37
2018-08-09T01:02:56.538Z,8.20
2018-08-09T01:08:00.923Z,9.37
2018-08-09T01:13:04.625Z,9.00
2018-08-09T01:18:09.499Z,8.77
2018-08-09T01:23:13.169Z,9.27
2018-08-09T01:28:16.830Z,8.67
2018-08-09T01:33:20.489Z,9.97
2018-08-09T01:38:24.164Z,8.60
2018-08-09T01:43:39.115Z,9.80
2018-08-09T01:48:42.842Z,9.80
2018-08-09T01:53:46.522Z,9.77
2018-08-09T01:58:50.771Z,9.90
2018-08-09T02:03:54.495Z,9.17
2018-08-09T02:09:02.330Z,9.50
2018-08-09T02:14:06.230Z,9.80
2018-08-09T02:19:09.826Z,10.50
2018-08-09T02:24:13.418Z,10.27
2018-08-09T02:29:17.107Z,10.70
2018-08-09T02:34:20.839Z,9.53
2018-08-09T02:39:24.480Z,9.40
2018-08-09T02:44:28.123Z,10.00
2018-08-09T02:49:31.841Z,11.23
2018-08-09T02:54:45.584Z,10.40
2018-08-09T02:59:49.288Z,10.90
2018-08-09T03:04:55.060Z,11.20
2018-08-09T03:09:58.786Z,9.90
2018-08-09T03:15:03.594Z,10.63
2018-08-09T03:20:07.267Z,10.00
2018-08-09T03:25:11.069Z,12.30
2018-08-09T03:30:15.703Z,11.00
2018-08-09T03:35:26.064Z,11.80
2018-08-09T03:40:29.874Z,11.13
2018-08-09T03:45:34.078Z,12.10
2018-08-09T03:50:37.829Z,11.50
2018-08-09T03:55:41.463Z,11.87
2018-08-09T04:00:45.063Z,12.20
2018-08-09T04:05:48.671Z,12.00
2018-08-09T04:10:52.383Z,11.70
2018-08-09T04:15:57.172Z,12.17
2018-08-09T04:21:00.999Z,12.73
2018-08-09T04:26:04.665Z,12.50
2018-08-09T04:31:08.403Z,13.10
2018-08-09T04:36:12.228Z,12.23
2018-08-09T04:41:15.999Z,11.97
2018-08-09T04:46:19.732Z,11.97
2018-08-09T04:51:23.335Z,11.77
2018-08-09T04:56:27.064Z,13.00
2018-08-09T05:01:30.736Z,11.37
2018-08-09T05:06:34.446Z,10.67
2018-08-09T05:11:38.240Z,10.63
2018-08-09T05:16:41.912Z,11.77
2018-08-09T05:21:45.657Z,11.57
2018-08-09T05:26:49.379Z,11.83
2018-08-09T05:31:53.125Z,11.57
2018-08-09T05:36:56.882Z,9.90
2018-08-09T05:42:00.671Z,10.43
2018-08-09T05:47:04.478Z,12.20
2018-08-09T05:52:08.163Z,11.47
2018-08-09T05:57:12.008Z,12.00
2018-08-09T06:02:16.201Z,12.17
2018-08-09T06:07:20.070Z,11.73
2018-08-09T06:12:23.766Z,11.90
2018-08-09T06:17:27.457Z,12.80
2018-08-09T06:22:31.155Z,12.03
2018-08-09T06:27:34.933Z,12.70
2018-08-09T06:32:39.070Z,12.53
2018-08-09T06:37:42.796Z,13.93
2018-08-09T06:42:46.455Z,13.87
2018-08-09T06:47:50.191Z,13.50
2018-08-09T06:52:53.908Z,14.50
2018-08-09T06:57:57.577Z,14.10
2018-08-09T07:03:01.606Z,13.40
2018-08-09T07:08:05.454Z,13.27
2018-08-09T07:13:09.186Z,14.30
2018-08-09T07:18:12.873Z,13.67
2018-08-09T07:23:16.615Z,13.33
2018-08-09T07:28:20.304Z,13.77
2018-08-09T07:33:23.919Z,11.53
2018-08-09T07:38:27.579Z,12.40
2018-08-09T07:43:31.245Z,11.87
2018-08-09T07:48:34.967Z,14.80
2018-08-09T07:53:38.695Z,16.97
2018-08-09T07:58:42.317Z,16.20
2018-08-09T08:03:46.236Z,13.87
2018-08-09T08:08:50.047Z,13.83
2018-08-09T08:13:53.680Z,13.20
2018-08-09T08:18:57.412Z,12.93
2018-08-09T08:24:01.228Z,12.97
2018-08-09T08:29:05.291Z,12.33
2018-08-09T08:34:09.115Z,12.93
2018-08-09T08:39:12.822Z,15.20
2018-08-09T08:44:16.588Z,15.20
2018-08-09T08:49:20.297Z,16.33
2018-08-09T08:54:24.003Z,17.23
2018-08-09T08:59:27.647Z,18.17
2018-08-09T09:04:31.404Z,14.77
2018-08-09T09:09:37.151Z,14.07
2018-08-09T09:14:40.972Z,13.17
2018-08-09T09:19:45.315Z,12.60
2018-08-09T09:24:49.245Z,11.23
2018-08-09T09:29:53.017Z,12.70
2018-08-09T09:35:08.051Z,11.67
2018-08-09T09:40:11.931Z,9.50
2018-08-09T09:45:15.743Z,11.70
2018-08-09T09:50:19.530Z,10.70
2018-08-09T09:55:25.372Z,10.93
2018-08-09T10:00:33.262Z,7.97
2018-08-09T10:05:37.088Z,6.93
2018-08-09T10:10:41.633Z,5.63
2018-08-09T10:15:45.431Z,5.50
2018-08-09T10:20:49.066Z,5.90
2018-08-09T10:25:52.759Z,6.00
2018-08-09T10:30:56.522Z,5.63
2018-08-09T10:36:00.312Z,6.13
2018-08-09T10:41:03.985Z,6.87
2018-08-09T10:46:12.574Z,7.00
2018-08-09T10:51:16.396Z,6.10
2018-08-09T10:56:20.111Z,6.13
2018-08-09T11:01:23.943Z,6.67
2018-08-09T11:06:27.881Z,5.93
2018-08-09T11:11:31.605Z,6.00
2018-08-09T11:16:35.318Z,6.63
2018-08-09T11:21:39.013Z,6.87
2018-08-09T11:26:42.886Z,6.03
2018-08-09T11:31:46.583Z,5.67
2018-08-09T11:36:50.273Z,5.70
2018-08-09T11:41:54.015Z,5.57
2018-08-09T11:46:57.798Z,5.30
2018-08-09T11:52:01.508Z,4.93
2018-08-09T11:57:05.419Z,4.80
2018-08-09T12:02:09.158Z,5.23
2018-08-09T12:07:12.883Z,4.33
2018-08-09T12:12:16.591Z,4.37
2018-08-09T12:17:20.304Z,4.10
2018-08-09T12:22:24.087Z,3.57
2018-08-09T12:27:28.056Z,3.93
2018-08-09T12:32:31.850Z,4.23
2018-08-09T12:37:35.582Z,4.17
2018-08-09T12:42:39.877Z,4.30
2018-08-09T12:47:43.650Z,4.20
2018-08-09T12:52:47.341Z,3.93
2018-08-09T12:57:51.100Z,5.00
2018-08-09T13:02:54.745Z,5.10
2018-08-09T13:07:58.609Z,5.70
2018-08-09T13:13:02.291Z,5.30
2018-08-09T13:18:07.533Z,5.23
2018-08-09T13:23:11.262Z,4.80
2018-08-09T13:28:14.942Z,4.93
2018-08-09T13:33:18.717Z,5.40
2018-08-09T13:38:22.413Z,5.40
2018-08-09T13:43:26.495Z,4.40
2018-08-09T13:48:30.458Z,4.83
2018-08-09T13:53:34.123Z,4.40
2018-08-09T13:58:37.766Z,4.70
2018-08-09T14:03:41.716Z,4.27
2018-08-09T14:08:45.661Z,4.17
2018-08-09T14:13:49.843Z,4.90
2018-08-09T14:18:53.688Z,4.70
2018-08-09T14:23:57.568Z,4.60
2018-08-09T14:29:01.260Z,5.20
2018-08-09T14:34:05.059Z,4.20
2018-08-09T14:39:09.913Z,4.10
2018-08-09T14:44:13.576Z,4.00
2018-08-09T14:49:17.317Z,4.30
2018-08-09T14:54:21.019Z,4.30
2018-08-09T14:59:24.724Z,4.20
2018-08-09T15:04:28.475Z,4.10
2018-08-09T15:09:32.250Z,4.10
2018-08-09T15:14:35.950Z,4.13
2018-08-09T15:19:41.643Z,4.00
2018-08-09T15:24:45.487Z,3.70
2018-08-09T15:29:49.161Z,4.17
2018-08-09T15:34:54.972Z,4.33
2018-08-09T15:39:58.708Z,4.00
2018-08-09T15:45:02.467Z,4.87
2018-08-09T15:50:07.435Z,4.50
2018-08-09T15:55:12.756Z,4.27
2018-08-09T16:00:22.980Z,5.70
2018-08-09T16:05:30.178Z,5.07
2018-08-09T16:10:34.577Z,4.90
2018-08-09T16:15:38.284Z,5.30
2018-08-09T16:20:42.138Z,5.40
2018-08-09T16:25:45.945Z,5.10
2018-08-09T16:30:49.699Z,4.73
2018-08-09T16:35:53.393Z,5.27
2018-08-09T16:40:57.217Z,4.97
2018-08-09T16:46:00.927Z,5.23
2018-08-09T16:51:06.820Z,5.70
2018-08-09T16:56:10.686Z,5.20
2018-08-09T17:01:14.406Z,5.13
2018-08-09T17:06:18.097Z,4.83
2018-08-09T17:11:22.300Z,5.60
2018-08-09T17:16:26.133Z,5.50
2018-08-09T17:21:30.015Z,5.10
2018-08-09T17:26:33.723Z,4.13
2018-08-09T17:31:37.812Z,4.40
2018-08-09T17:36:41.682Z,4.00
2018-08-09T17:41:47.126Z,4.10
2018-08-09T17:46:51.588Z,3.97
2018-08-09T17:51:55.361Z,3.93
2018-08-09T17:56:59.123Z,3.57
2018-08-09T18:02:02.987Z,3.40
2018-08-09T18:07:06.789Z,3.67
2018-08-09T18:12:14.080Z,3.20
2018-08-09T18:17:17.906Z,3.87
2018-08-09T18:22:21.838Z,3.67
2018-08-09T18:27:25.727Z,2.87
2018-08-09T18:32:29.546Z,3.17
2018-08-09T18:37:33.287Z,3.23
2018-08-09T18:42:37.260Z,2.83
2018-08-09T18:47:41.185Z,3.03
2018-08-09T18:52:45.147Z,3.33
2018-08-09T18:57:49.209Z,3.00
2018-08-09T19:02:53.242Z,2.90
2018-08-09T19:07:57.050Z,3.10
2018-08-09T19:13:00.911Z,2.83
2018-08-09T19:18:04.669Z,2.50
2018-08-09T19:23:08.657Z,2.37
2018-08-09T19:28:12.465Z,2.37
2018-08-09T19:33:17.177Z,2.37
2018-08-09T19:38:21.106Z,2.30
2018-08-09T19:43:24.963Z,2.30
2018-08-09T19:48:28.888Z,2.50
2018-08-09T19:53:32.987Z,2.60
2018-08-09T19:58:37.018Z,2.47
2018-08-09T20:03:41.235Z,2.57
2018-08-09T20:08:45.418Z,2.70
2018-08-09T20:13:49.523Z,2.53
2018-08-09T20:18:53.328Z,2.53
2018-08-09T20:23:57.185Z,2.70
2018-08-09T20:29:01.414Z,2.60
2018-08-09T20:34:05.795Z,3.10
2018-08-09T20:39:12.618Z,3.07
2018-08-09T20:44:17.160Z,3.20
2018-08-09T20:49:23.845Z,3.40
2018-08-09T20:54:34.274Z,3.30
2018-08-09T20:59:38.231Z,3.87
2018-08-09T21:04:42.141Z,3.87
2018-08-09T21:09:46.051Z,3.93
2018-08-09T21:14:49.975Z,4.37
2018-08-09T21:19:53.911Z,4.10
2018-08-09T21:24:58.112Z,4.40
2018-08-09T21:30:01.883Z,3.90
2018-08-09T21:35:07.538Z,4.37
2018-08-09T21:40:12.311Z,4.37
2018-08-09T21:45:18.591Z,3.90
2018-08-09T21:50:22.846Z,4.40
2018-08-09T21:55:27.984Z,3.60
2018-08-09T22:00:51.894Z,3.90
2018-08-09T22:06:01.087Z,4.30
2018-08-09T22:11:10.551Z,4.00
2018-08-09T22:16:19.789Z,3.83
2018-08-09T22:21:29.039Z,3.93
2018-08-09T22:26:32.958Z,3.70
2018-08-09T22:31:36.830Z,4.00
2018-08-09T22:36:40.890Z,4.10
2018-08-09T22:41:44.761Z,4.07
2018-08-09T22:46:48.715Z,4.30
2018-08-09T22:51:52.619Z,4.20
2018-08-09T22:56:56.491Z,4.57
2018-08-09T23:02:00.320Z,4.20
2018-08-09T23:07:04.264Z,4.63
2018-08-09T23:12:08.397Z,4.30
2018-08-09T23:17:12.459Z,4.20
2018-08-09T23:22:19.888Z,3.90
2018-08-09T23:27:23.604Z,4.50
2018-08-09T23:32:27.531Z,4.30
2018-08-09T23:37:31.521Z,4.37
2018-08-09T23:42:36.315Z,3.90
2018-08-09T23:47:40.986Z,3.43
2018-08-09T23:52:44.871Z,2.90
2018-08-09T23:57:48.661Z,3.37
